Time;durP1;ratioP1;P1;durP2;ratioP2;P2;SDS_P1;SDS_P2;PMS_P1;PMS_P2;Temp;Humidity;BMP_temperature;BMP_pressure;BME280_temperature;BME280_humidity;BME280_pressure;Samples;Min_cycle;Max_cycle;Signal;HPM_P1;HPM_P2
2022/02/08 00:02:01;;;;;;;6.82;1.65;;;9.40;45.40;;;;;;6282734;28;20032;-71
2022/02/08 00:05:04;;;;;;;4.47;1.85;;;9.30;45.50;;;;;;6283131;28;20532;-71
2022/02/08 00:08:05;;;;;;;9.82;2.00;;;9.30;45.50;;;;;;6282572;28;20020;-71
2022/02/08 00:11:06;;;;;;;7.35;1.35;;;9.20;45.60;;;;;;6283253;28;20075;-71
2022/02/08 00:14:07;;;;;;;4.75;2.13;;;9.20;45.60;;;;;;6269846;28;20143;-72
2022/02/08 00:17:08;;;;;;;5.93;1.20;;;9.20;45.70;;;;;;6280414;28;20029;-71
2022/02/08 00:20:10;;;;;;;10.48;1.45;;;9.20;45.80;;;;;;6252873;28;20056;-70
2022/02/08 00:23:11;;;;;;;12.50;1.67;;;9.10;45.90;;;;;;6268930;28;20036;-71
2022/02/08 00:26:12;;;;;;;2.65;1.50;;;9.00;46.10;;;;;;6262984;28;20039;-70
2022/02/08 00:29:14;;;;;;;5.90;1.63;;;9.00;46.00;;;;;;6262096;28;20028;-71
2022/02/08 00:32:14;;;;;;;3.10;1.25;;;9.00;46.20;;;;;;6284094;28;20052;-71
2022/02/08 00:35:15;;;;;;;4.18;1.27;;;8.90;46.30;;;;;;6279872;28;20023;-70
2022/02/08 00:38:17;;;;;;;10.20;1.10;;;8.90;46.50;;;;;;6265438;28;20066;-71
2022/02/08 00:41:18;;;;;;;5.43;1.65;;;8.80;46.70;;;;;;6263699;28;20025;-70
2022/02/08 00:44:25;;;;;;;7.15;1.60;;;8.70;46.80;;;;;;6262829;28;20047;-71
2022/02/08 00:50:29;;;;;;;11.10;2.00;;;8.60;46.90;;;;;;6263520;28;20063;-70
2022/02/08 00:53:30;;;;;;;8.27;1.80;;;8.60;47.00;;;;;;6247730;28;20099;-71
2022/02/08 00:56:31;;;;;;;16.45;1.65;;;8.50;47.10;;;;;;6266395;28;20116;-70
2022/02/08 00:59:32;;;;;;;10.05;1.65;;;8.50;47.20;;;;;;6249451;28;20032;-71
2022/02/08 01:02:34;;;;;;;4.35;1.08;;;8.50;47.20;;;;;;6250085;28;20068;-69
2022/02/08 01:05:41;;;;;;;2.72;1.40;;;8.50;47.30;;;;;;6283867;28;20029;-69
2022/02/08 01:08:42;;;;;;;8.02;1.60;;;8.40;47.40;;;;;;6282721;28;20024;-69
2022/02/08 01:11:45;;;;;;;5.07;1.35;;;8.40;47.40;;;;;;6261920;28;20024;-70
2022/02/08 01:14:49;;;;;;;6.05;1.23;;;8.40;47.40;;;;;;6283758;28;20107;-70
2022/02/08 01:17:55;;;;;;;3.40;1.30;;;8.40;47.50;;;;;;6271261;28;20020;-69
2022/02/08 01:20:56;;;;;;;4.70;1.30;;;8.40;47.60;;;;;;6279006;28;20056;-69
2022/02/08 01:23:58;;;;;;;5.72;1.27;;;8.40;47.70;;;;;;6261323;28;20059;-69
2022/02/08 01:27:04;;;;;;;3.88;1.45;;;8.40;47.80;;;;;;6279192;28;20031;-69
2022/02/08 01:30:13;;;;;;;7.82;1.23;;;8.40;47.80;;;;;;6284437;28;20020;-69
2022/02/08 01:39:33;;;;;;;2.45;1.38;;;8.30;48.20;;;;;;6262826;28;20454;-69
2022/02/08 01:42:46;;;;;;;6.22;1.73;;;8.20;48.30;;;;;;6280423;28;20417;-70
2022/02/08 01:49:49;;;;;;;5.07;1.50;;;8.20;48.30;;;;;;6260767;28;20031;-70
2022/02/08 01:52:19;;;;;;;4.00;1.23;;;8.10;48.30;;;;;;6271057;28;20041;-70
2022/02/08 01:55:21;;;;;;;9.23;1.75;;;8.20;48.40;;;;;;6252707;28;20039;-70
2022/02/08 01:58:22;;;;;;;3.70;0.93;;;8.20;48.50;;;;;;6263013;28;20165;-70
2022/02/08 02:01:23;;;;;;;12.57;1.38;;;8.20;48.50;;;;;;6263111;28;20024;-69
2022/02/08 02:04:24;;;;;;;1.88;1.10;;;8.30;48.60;;;;;;6277419;28;20033;-69
2022/02/08 02:07:26;;;;;;;2.75;1.02;;;8.30;48.70;;;;;;6260651;28;20024;-70
2022/02/08 02:10:27;;;;;;;2.03;1.23;;;8.30;48.70;;;;;;6260463;28;20035;-69
2022/02/08 02:13:46;;;;;;;7.20;1.30;;;8.20;48.50;;;;;;6262388;28;20021;-70
2022/02/08 02:16:57;;;;;;;3.58;1.40;;;8.30;48.60;;;;;;6246338;28;20265;-70
2022/02/08 02:19:58;;;;;;;3.57;1.53;;;8.30;48.50;;;;;;6258491;28;20144;-69
2022/02/08 02:22:59;;;;;;;2.42;1.10;;;8.30;48.50;;;;;;6250978;28;20025;-69
2022/02/08 02:26:00;;;;;;;3.10;1.55;;;8.20;48.60;;;;;;6253603;28;20020;-69
2022/02/08 02:29:02;;;;;;;5.13;1.40;;;8.10;48.90;;;;;;6262492;28;20025;-69
2022/02/08 02:32:03;;;;;;;4.60;1.55;;;8.10;49.10;;;;;;6249574;28;20319;-70
2022/02/08 02:35:06;;;;;;;3.92;1.75;;;8.10;49.30;;;;;;6259680;28;20672;-69
2022/02/08 02:38:07;;;;;;;6.70;1.10;;;8.00;49.30;;;;;;6258936;28;20021;-69
2022/02/08 02:41:14;;;;;;;5.95;1.75;;;8.00;49.40;;;;;;6253849;28;20033;-69
2022/02/08 02:44:18;;;;;;;5.38;1.15;;;8.00;49.50;;;;;;6261424;28;20469;-69
2022/02/08 02:47:22;;;;;;;6.03;1.55;;;8.00;49.70;;;;;;6275837;28;20063;-70
2022/02/08 02:50:24;;;;;;;5.47;1.92;;;8.00;49.90;;;;;;6277671;28;20024;-70
2022/02/08 02:53:26;;;;;;;3.03;1.67;;;8.00;49.90;;;;;;6241289;28;20348;-70
2022/02/08 02:56:28;;;;;;;2.47;1.35;;;7.90;49.90;;;;;;6259180;28;20029;-69
2022/02/08 02:59:32;;;;;;;2.70;1.52;;;7.90;50.00;;;;;;6257827;28;20021;-70
2022/02/08 03:06:05;;;;;;;2.72;1.40;;;7.90;50.10;;;;;;6264243;28;20614;-69
2022/02/08 03:19:05;;;;;;;1.60;1.15;;;7.90;50.30;;;;;;6278393;28;20063;-68
2022/02/08 03:22:07;;;;;;;6.95;2.35;;;7.80;50.40;;;;;;6247747;28;20466;-68
2022/02/08 03:25:08;;;;;;;5.18;1.83;;;7.80;50.40;;;;;;6254142;28;20111;-69
2022/02/08 03:28:10;;;;;;;10.13;2.72;;;7.80;50.50;;;;;;6263403;28;20052;-71
2022/02/08 03:31:11;;;;;;;3.33;1.80;;;7.80;50.50;;;;;;6251625;28;20029;-69
2022/02/08 03:34:12;;;;;;;12.10;1.60;;;7.70;50.50;;;;;;6246857;28;20024;-69
2022/02/08 03:37:19;;;;;;;1.30;1.00;;;7.70;50.50;;;;;;6262427;28;20029;-69
2022/02/08 03:40:36;;;;;;;3.30;1.05;;;7.70;50.60;;;;;;6277308;28;20021;-69
2022/02/08 03:43:45;;;;;;;7.45;1.83;;;7.60;50.50;;;;;;6267883;28;20037;-71
2022/02/08 03:46:47;;;;;;;4.40;1.77;;;7.60;50.50;;;;;;6260353;28;20217;-71
2022/02/08 03:49:50;;;;;;;3.35;1.45;;;7.60;50.50;;;;;;6245675;28;20029;-69
2022/02/08 03:52:51;;;;;;;2.58;1.17;;;7.60;50.50;;;;;;6250791;28;20032;-69
2022/02/08 03:55:54;;;;;;;2.58;1.10;;;7.60;50.50;;;;;;6257946;28;20036;-69
2022/02/08 03:58:59;;;;;;;8.32;2.22;;;7.50;50.50;;;;;;6251927;28;20037;-72
2022/02/08 04:08:22;;;;;;;6.30;2.28;;;7.50;51.10;;;;;;6276686;28;20048;-70
2022/02/08 04:11:23;;;;;;;6.97;1.75;;;7.50;51.20;;;;;;6276314;28;20453;-69
2022/02/08 04:14:34;;;;;;;4.40;1.67;;;7.50;51.20;;;;;;6275053;28;20033;-69
2022/02/08 04:37:53;;;;;;;5.28;2.08;;;7.30;51.40;;;;;;6278132;28;20714;-69
2022/02/08 04:47:22;;;;;;;5.45;2.28;;;7.20;51.80;;;;;;6186434;28;20038;-69
2022/02/08 04:50:25;;;;;;;7.55;2.00;;;7.10;51.90;;;;;;6184552;28;20041;-69
2022/02/08 04:53:34;;;;;;;4.15;1.75;;;7.10;52.10;;;;;;6184323;28;20545;-69
2022/02/08 04:56:58;;;;;;;8.55;1.70;;;7.10;52.10;;;;;;6185067;28;20034;-69
2022/02/08 05:00:18;;;;;;;7.72;2.00;;;7.10;52.10;;;;;;6182038;28;20038;-69
2022/02/08 05:43:17;;;;;;;3.78;1.73;;;6.70;52.80;;;;;;6135485;28;20035;-70
2022/02/08 05:49:39;;;;;;;6.70;1.92;;;6.70;53.00;;;;;;6168900;28;20051;-69
2022/02/08 05:55:59;;;;;;;;;;;6.60;53.10;;;;;;6165749;28;20054;-69
2022/02/08 05:58:59;;;;;;;5.60;2.20;;;6.60;53.10;;;;;;6168468;28;19937;-70
2022/02/08 06:02:00;;;;;;;8.65;2.45;;;6.60;53.30;;;;;;6150716;28;20049;-68
2022/02/08 06:05:20;;;;;;;6.28;2.55;;;6.50;53.40;;;;;;6148811;28;20094;-69
2022/02/08 06:08:20;;;;;;;11.75;2.88;;;6.50;53.50;;;;;;6166148;28;20460;-69
2022/02/08 06:11:23;;;;;;;2.83;1.60;;;6.50;53.50;;;;;;6149536;28;20019;-70
2022/02/08 06:14:26;;;;;;;7.38;2.85;;;6.50;53.60;;;;;;6164608;28;20102;-69
2022/02/08 06:17:28;;;;;;;7.32;2.35;;;6.60;53.70;;;;;;6147674;28;20030;-70
2022/02/08 06:20:28;;;;;;;8.88;3.17;;;6.60;53.70;;;;;;6253694;28;20429;-70
2022/02/08 06:23:29;;;;;;;5.10;2.38;;;6.60;53.80;;;;;;6277344;28;20035;-70
2022/02/08 06:26:30;;;;;;;6.82;2.05;;;6.60;53.90;;;;;;6261744;28;20672;-71
2022/02/08 06:29:31;;;;;;;7.00;2.88;;;6.60;54.00;;;;;;6250782;28;20079;-70
2022/02/08 06:32:33;;;;;;;7.80;2.25;;;6.60;54.00;;;;;;6259822;28;20032;-69
2022/02/08 06:35:34;;;;;;;8.18;2.35;;;6.60;54.00;;;;;;6275948;28;20029;-71
2022/02/08 06:38:35;;;;;;;4.18;2.55;;;6.60;54.00;;;;;;6257890;28;20033;-70
2022/02/08 06:41:36;;;;;;;9.60;2.67;;;6.60;54.10;;;;;;6279033;28;20044;-70
2022/02/08 06:44:37;;;;;;;5.75;2.33;;;6.60;54.20;;;;;;6279179;28;20016;-69
2022/02/08 06:47:39;;;;;;;8.93;2.10;;;6.60;54.30;;;;;;6260686;28;20035;-69
2022/02/08 06:50:40;;;;;;;11.98;3.50;;;6.60;54.30;;;;;;6261695;28;20033;-71
2022/02/08 06:53:42;;;;;;;9.95;2.72;;;6.60;54.20;;;;;;6249299;28;20467;-70
2022/02/08 06:56:43;;;;;;;8.32;2.33;;;6.60;54.20;;;;;;6258259;28;20033;-69
2022/02/08 06:59:50;;;;;;;7.88;2.63;;;6.60;54.20;;;;;;6244188;28;20408;-69
2022/02/08 07:02:51;;;;;;;13.97;2.03;;;6.60;54.10;;;;;;6260081;28;20045;-71
2022/02/08 07:05:52;;;;;;;4.47;2.85;;;6.60;54.10;;;;;;6277935;28;20021;-70
2022/02/08 07:08:53;;;;;;;5.13;2.50;;;6.60;54.10;;;;;;6261628;28;20048;-69
2022/02/08 07:11:56;;;;;;;7.47;2.70;;;6.60;54.10;;;;;;6276292;28;20039;-70
2022/02/08 07:14:58;;;;;;;6.82;2.50;;;6.70;54.30;;;;;;6263987;28;20055;-70
2022/02/08 07:18:00;;;;;;;7.53;2.67;;;6.70;54.30;;;;;;6278322;28;20024;-70
2022/02/08 07:21:01;;;;;;;8.98;2.33;;;6.70;54.30;;;;;;6242383;28;20042;-70
2022/02/08 07:24:03;;;;;;;19.85;3.38;;;6.70;54.30;;;;;;6250829;28;20028;-69
2022/02/08 07:27:04;;;;;;;8.32;2.92;;;6.70;54.30;;;;;;6275375;28;20024;-71
2022/02/08 07:30:12;;;;;;;10.55;2.45;;;6.70;54.30;;;;;;6259199;28;20094;-69
2022/02/08 07:33:13;;;;;;;4.53;2.08;;;6.80;54.30;;;;;;6274052;28;20049;-71
2022/02/08 07:36:37;;;;;;;4.95;2.58;;;6.80;54.20;;;;;;6246778;28;20314;-71
2022/02/08 07:39:42;;;;;;;8.38;2.90;;;6.80;54.20;;;;;;6262539;28;20119;-70
2022/02/08 07:42:43;;;;;;;5.75;2.78;;;6.80;54.10;;;;;;6257320;28;20111;-69
2022/02/08 07:45:44;;;;;;;6.32;2.83;;;6.80;54.00;;;;;;6262083;28;20029;-69
2022/02/08 07:48:45;;;;;;;5.65;2.17;;;6.80;54.00;;;;;;6255182;28;20028;-70
2022/02/08 07:51:46;;;;;;;9.05;3.28;;;6.90;54.10;;;;;;6277201;28;20452;-71
2022/02/08 07:54:47;;;;;;;13.55;3.03;;;6.90;54.00;;;;;;6257103;28;20038;-70
2022/02/08 07:57:48;;;;;;;13.07;2.97;;;6.90;54.00;;;;;;6279990;28;20029;-70
2022/02/08 08:00:49;;;;;;;8.85;3.05;;;6.90;54.00;;;;;;6275267;28;20112;-69
2022/02/08 08:03:50;;;;;;;5.95;2.63;;;6.90;54.00;;;;;;6428440;23;20045;-71
2022/02/08 08:06:51;;;;;;;10.85;3.65;;;6.90;54.10;;;;;;6263286;28;20356;-70
2022/02/08 08:09:52;;;;;;;16.20;3.60;;;6.90;54.10;;;;;;6259247;28;20029;-70
2022/02/08 08:12:54;;;;;;;11.95;3.90;;;7.00;54.00;;;;;;6260727;28;20116;-71
2022/02/08 08:16:04;;;;;;;9.88;3.55;;;7.00;54.00;;;;;;6262051;28;20086;-70
2022/02/08 08:22:12;;;;;;;10.30;4.18;;;7.20;53.90;;;;;;6260675;28;20025;-70
2022/02/08 08:25:13;;;;;;;8.15;3.70;;;7.20;53.70;;;;;;6265157;28;20333;-70
2022/02/08 08:28:13;;;;;;;11.35;3.78;;;7.30;53.60;;;;;;6263614;28;20179;-69
2022/02/08 08:31:15;;;;;;;16.42;4.55;;;7.30;53.50;;;;;;6265593;28;20021;-70
2022/02/08 08:34:16;;;;;;;11.77;3.83;;;7.30;53.50;;;;;;6264273;28;20044;-70
2022/02/08 08:37:17;;;;;;;12.52;3.85;;;7.40;53.60;;;;;;6264282;28;20025;-71
2022/02/08 08:40:36;;;;;;;13.07;3.28;;;7.40;53.50;;;;;;6262482;28;20034;-70
2022/02/08 08:50:25;;;;;;;10.88;3.05;;;7.50;53.40;;;;;;6265443;28;20067;-70
2022/02/08 08:53:26;;;;;;;6.53;2.90;;;7.60;53.20;;;;;;6265394;28;20057;-70
2022/02/08 08:56:27;;;;;;;8.40;2.75;;;7.70;52.90;;;;;;6278448;28;20033;-70
2022/02/08 08:59:28;;;;;;;6.13;2.40;;;7.70;52.90;;;;;;6246496;28;20029;-71
2022/02/08 09:02:29;;;;;;;9.25;3.78;;;7.80;52.80;;;;;;6263974;28;20511;-71
2022/02/08 09:05:30;;;;;;;19.52;3.45;;;7.90;52.70;;;;;;6263167;28;20143;-71
2022/02/08 09:08:33;;;;;;;15.57;4.03;;;8.00;52.50;;;;;;6266275;28;20024;-71
2022/02/08 09:11:49;;;;;;;8.20;3.20;;;8.10;52.30;;;;;;6265576;28;20456;-71
2022/02/08 09:31:13;;;;;;;6.20;2.70;;;8.40;51.50;;;;;;6237887;28;20026;-70
2022/02/08 09:34:14;;;;;;;5.75;2.30;;;8.40;51.10;;;;;;6220724;28;20034;-70
2022/02/08 09:37:17;;;;;;;9.15;3.25;;;8.50;51.00;;;;;;6220444;28;20030;-70
2022/02/08 09:40:19;;;;;;;8.13;3.40;;;8.60;51.00;;;;;;6219820;28;20090;-70
2022/02/08 09:43:20;;;;;;;4.65;3.03;;;8.80;51.00;;;;;;6236828;28;20037;-71
2022/02/08 09:46:21;;;;;;;11.93;2.83;;;8.90;50.80;;;;;;6236737;28;20054;-71
2022/02/08 09:49:22;;;;;;;5.70;2.30;;;9.00;50.60;;;;;;6230568;28;20437;-71
2022/02/08 09:52:23;;;;;;;6.93;3.15;;;9.10;50.30;;;;;;6222156;28;20029;-70
2022/02/08 09:55:27;;;;;;;8.95;2.28;;;9.10;49.90;;;;;;6237715;28;20049;-71
2022/02/08 09:58:29;;;;;;;21.25;5.95;;;9.30;49.80;;;;;;6236482;28;20065;-70
2022/02/08 10:01:30;;;;;;;10.40;4.30;;;9.30;49.60;;;;;;6250987;28;20051;-70
2022/02/08 10:04:31;;;;;;;14.82;5.65;;;9.40;49.40;;;;;;6261717;28;20037;-69
2022/02/08 10:07:33;;;;;;;16.38;4.50;;;9.40;49.10;;;;;;6258213;28;20171;-70
2022/02/08 10:10:34;;;;;;;10.48;3.80;;;9.50;48.70;;;;;;6261864;28;20045;-70
2022/02/08 10:23:51;;;;;;;7.15;3.38;;;9.70;48.10;;;;;;6261578;28;20048;-70
2022/02/08 10:27:02;;;;;;;7.75;2.53;;;9.90;47.60;;;;;;6244685;28;20110;-69
2022/02/08 10:40:25;;;;;;;12.43;6.10;;;11.30;44.70;;;;;;6262457;28;20394;-72
2022/02/08 10:43:28;;;;;;;6.20;2.22;;;11.40;44.40;;;;;;6260607;28;20036;-71
2022/02/08 10:46:30;;;;;;;7.15;2.50;;;11.50;44.10;;;;;;6259365;28;20136;-70
2022/02/08 10:49:33;;;;;;;5.65;2.47;;;11.60;44.00;;;;;;6260896;28;20028;-70
2022/02/08 10:52:36;;;;;;;4.65;1.90;;;11.70;43.90;;;;;;6260576;28;20030;-70
2022/02/08 10:58:57;;;;;;;4.53;1.98;;;12.00;42.90;;;;;;6264461;28;20106;-70
2022/02/08 11:02:04;;;;;;;5.78;2.25;;;12.10;43.00;;;;;;6259203;28;20140;-70
2022/02/08 11:05:19;;;;;;;7.37;2.43;;;12.40;42.30;;;;;;6262485;28;20159;-70
2022/02/08 11:08:46;;;;;;;9.77;3.13;;;12.60;41.60;;;;;;6259673;28;20477;-71
2022/02/08 11:12:34;;;;;;;10.60;3.90;;;12.80;41.00;;;;;;6244509;28;20033;-71
2022/02/08 11:18:47;;;;;;;5.60;1.65;;;13.20;39.60;;;;;;6257960;28;20100;-70
2022/02/08 11:22:05;;;;;;;4.68;2.20;;;13.20;39.20;;;;;;6258947;28;20036;-72
2022/02/08 11:25:22;;;;;;;7.80;1.80;;;13.50;38.90;;;;;;6262326;28;20036;-71
2022/02/08 11:28:40;;;;;;;4.88;2.00;;;13.80;38.40;;;;;;6257018;28;20118;-70
2022/02/08 11:31:48;;;;;;;;;;;14.10;37.60;;;;;;6259846;28;20029;-69
2022/02/08 12:01:32;;;;;;;6.68;2.92;;;17.80;30.50;;;;;;6235443;28;20125;-71
2022/02/08 12:08:03;;;;;;;4.65;2.28;;;18.70;29.60;;;;;;6235763;28;20453;-70
2022/02/08 12:34:23;;;;;;;6.05;2.30;;;17.80;29.80;;;;;;6263314;28;20013;-71
2022/02/08 13:00:35;;;;;;;4.00;2.05;;;14.80;33.50;;;;;;6266030;28;20021;-70
2022/02/08 13:03:53;;;;;;;11.43;1.80;;;14.60;33.70;;;;;;6267698;28;20068;-70
2022/02/08 14:07:09;;;;;;;43.80;3.67;;;13.50;36.10;;;;;;6268492;28;20572;-70
2022/02/08 14:10:23;;;;;;;11.15;1.85;;;13.50;36.20;;;;;;6286725;28;20036;-70
2022/02/08 14:32:57;;;;;;;6.53;2.22;;;13.80;36.60;;;;;;6286858;28;20024;-71
2022/02/08 14:36:18;;;;;;;5.00;2.00;;;13.80;36.60;;;;;;6271067;28;20230;-69
2022/02/08 15:09:26;;;;;;;21.85;4.03;;;13.90;36.70;;;;;;6145277;28;20023;-72
2022/02/08 15:12:31;;;;;;;5.57;2.13;;;14.00;36.80;;;;;;6139239;28;20374;-70
2022/02/08 15:18:57;;;;;;;6.90;3.22;;;14.00;36.70;;;;;;6142447;28;20070;-70
2022/02/08 15:22:00;;;;;;;23.67;3.75;;;14.00;36.70;;;;;;6141490;28;20027;-70
2022/02/08 15:25:02;;;;;;;44.60;3.55;;;13.90;36.40;;;;;;6140528;28;20035;-69
2022/02/08 15:28:04;;;;;;;9.13;2.35;;;14.00;36.30;;;;;;6169495;28;20073;-70
2022/02/08 15:31:05;;;;;;;14.85;2.78;;;14.00;36.80;;;;;;6169148;28;20034;-70
2022/02/08 15:34:06;;;;;;;7.05;1.95;;;14.00;36.30;;;;;;6240395;28;20044;-70
2022/02/08 15:37:07;;;;;;;53.83;3.35;;;14.00;36.40;;;;;;6260733;28;20043;-70
2022/02/08 15:40:10;;;;;;;7.82;1.95;;;13.90;36.40;;;;;;6258414;28;20048;-70
2022/02/08 15:43:13;;;;;;;11.65;2.65;;;14.00;36.50;;;;;;6257611;28;20362;-71
2022/02/08 15:46:25;;;;;;;23.90;2.45;;;14.00;36.60;;;;;;6244045;28;20044;-71
2022/02/08 15:49:26;;;;;;;16.85;2.38;;;14.00;36.70;;;;;;6258998;28;20445;-70
2022/02/08 15:52:45;;;;;;;17.00;3.38;;;13.90;36.70;;;;;;6245100;28;20033;-71
2022/02/08 16:15:36;;;;;;;53.13;4.70;;;13.70;38.00;;;;;;6265683;28;20124;-69
2022/02/08 16:28:41;;;;;;;7.60;2.20;;;13.60;38.40;;;;;;6193693;28;20029;-71
2022/02/08 16:32:13;;;;;;;5.78;2.70;;;13.50;38.40;;;;;;6207922;28;20056;-70
2022/02/08 17:01:39;;;;;;;9.57;3.33;;;13.30;38.80;;;;;;6161858;28;20038;-70
2022/02/08 17:04:40;;;;;;;10.93;4.18;;;13.30;38.90;;;;;;6145376;28;20252;-70
2022/02/08 17:07:41;;;;;;;12.02;3.13;;;13.30;39.10;;;;;;6163463;28;20034;-69
2022/02/08 17:10:47;;;;;;;7.93;2.22;;;13.20;39.10;;;;;;6165267;28;20411;-71
2022/02/08 17:14:14;;;;;;;4.65;1.85;;;13.20;39.10;;;;;;6162090;28;20799;-70
2022/02/08 17:47:30;;;;;;;7.43;3.25;;;12.80;39.50;;;;;;6272391;28;20032;-70
2022/02/08 17:50:22;;;;;;;10.77;3.22;;;12.70;39.60;;;;;;6287990;28;20041;-71
2022/02/08 17:53:23;;;;;;;9.65;3.38;;;12.70;39.80;;;;;;6287555;28;20021;-71
2022/02/08 17:56:25;;;;;;;5.20;2.50;;;12.70;40.00;;;;;;6286430;28;20032;-71
2022/02/08 17:59:25;;;;;;;8.80;3.33;;;12.60;40.00;;;;;;6287293;28;20035;-71
2022/02/08 18:02:27;;;;;;;11.73;3.33;;;12.60;40.10;;;;;;6287737;28;20029;-71
2022/02/08 18:05:28;;;;;;;11.38;3.38;;;12.30;40.20;;;;;;6287198;28;20043;-71
2022/02/08 18:08:29;;;;;;;18.45;5.55;;;12.40;40.50;;;;;;6269989;28;20016;-71
2022/02/08 18:11:36;;;;;;;13.85;4.78;;;12.30;40.70;;;;;;6269826;28;20050;-70
2022/02/08 18:14:39;;;;;;;9.93;2.88;;;12.30;40.90;;;;;;6253475;28;20178;-71
2022/02/08 18:17:47;;;;;;;10.27;3.70;;;12.20;41.10;;;;;;6269623;28;20652;-70
2022/02/08 18:21:09;;;;;;;11.07;4.40;;;12.20;41.30;;;;;;6273842;28;20045;-70
2022/02/08 18:57:08;;;;;;;23.17;8.90;;;11.60;43.50;;;;;;6185435;28;20065;-70
2022/02/08 19:22:17;;;;;;;11.93;4.00;;;11.20;44.70;;;;;;6287027;28;20089;-72
2022/02/08 19:25:18;;;;;;;8.52;3.47;;;11.10;44.80;;;;;;6255433;28;20028;-72
2022/02/08 19:28:19;;;;;;;14.50;4.60;;;11.00;45.00;;;;;;6270207;28;20306;-69
2022/02/08 19:31:21;;;;;;;8.65;3.90;;;11.00;45.10;;;;;;6288460;28;20107;-70
2022/02/08 19:34:24;;;;;;;10.65;3.85;;;10.90;45.30;;;;;;6273348;28;20024;-70
2022/02/08 19:37:25;;;;;;;7.53;3.38;;;10.90;45.50;;;;;;6268434;28;20047;-70
2022/02/08 19:40:27;;;;;;;16.83;4.00;;;10.80;45.60;;;;;;6284235;28;20706;-72
2022/02/08 19:43:28;;;;;;;8.00;3.97;;;10.80;45.70;;;;;;6266787;28;20429;-70
2022/02/08 19:46:29;;;;;;;16.08;4.40;;;10.80;45.80;;;;;;6256723;28;20039;-71
2022/02/08 19:49:30;;;;;;;13.70;4.85;;;10.80;46.00;;;;;;6271477;28;20021;-69
2022/02/08 19:52:32;;;;;;;18.40;4.63;;;10.80;46.10;;;;;;6267134;28;20441;-70
2022/02/08 19:55:56;;;;;;;12.23;4.78;;;10.70;46.10;;;;;;6268146;28;21376;-70
2022/02/08 19:58:59;;;;;;;10.00;4.15;;;10.70;46.20;;;;;;6286846;28;20441;-72
2022/02/08 20:02:02;;;;;;;11.32;5.00;;;10.70;46.20;;;;;;6284068;28;20503;-71
2022/02/08 20:05:04;;;;;;;14.13;4.50;;;10.60;46.20;;;;;;6287341;28;20065;-69
2022/02/08 20:08:05;;;;;;;11.13;4.28;;;10.50;46.30;;;;;;6287730;28;20094;-71
2022/02/08 20:11:06;;;;;;;8.35;3.83;;;10.50;46.40;;;;;;6253028;28;20024;-71
2022/02/08 20:14:08;;;;;;;7.82;3.67;;;10.50;46.40;;;;;;6287729;28;20020;-70
2022/02/08 20:17:10;;;;;;;10.18;4.38;;;10.40;46.30;;;;;;6259582;28;20029;-69
2022/02/08 20:20:13;;;;;;;10.75;4.25;;;10.40;46.40;;;;;;6272614;28;20055;-71
2022/02/08 20:23:17;;;;;;;11.32;4.18;;;10.40;46.50;;;;;;6273258;28;20041;-69
2022/02/08 20:26:21;;;;;;;9.18;4.22;;;10.40;46.50;;;;;;6255162;28;20111;-69
2022/02/08 20:29:24;;;;;;;26.48;5.50;;;10.40;46.50;;;;;;6273329;28;20027;-69
2022/02/08 20:32:25;;;;;;;16.83;4.75;;;10.30;46.60;;;;;;6271701;28;20044;-70
2022/02/08 20:35:26;;;;;;;11.38;3.90;;;10.30;46.70;;;;;;6290496;28;20020;-71
2022/02/08 20:38:26;;;;;;;17.38;6.10;;;10.30;46.70;;;;;;6274011;28;20029;-70
2022/02/08 20:41:27;;;;;;;19.30;5.13;;;10.30;46.80;;;;;;6289945;28;20032;-70
2022/02/08 20:44:29;;;;;;;18.15;5.32;;;10.20;46.80;;;;;;6271068;28;20028;-71
2022/02/08 20:47:30;;;;;;;27.92;8.57;;;10.20;46.90;;;;;;6293345;28;20028;-70
2022/02/08 20:50:32;;;;;;;25.90;9.80;;;10.20;47.00;;;;;;6272395;28;20035;-70
2022/02/08 20:53:46;;;;;;;17.23;5.28;;;10.20;47.00;;;;;;6271670;28;20020;-71
2022/02/08 20:57:00;;;;;;;22.85;8.10;;;10.20;47.10;;;;;;6269740;28;20031;-71
2022/02/08 21:00:07;;;;;;;24.60;9.68;;;10.20;47.10;;;;;;6293864;28;20027;-69
2022/02/08 21:03:25;;;;;;;11.75;4.85;;;10.20;47.10;;;;;;6290199;28;20027;-69
2022/02/08 21:06:28;;;;;;;16.02;5.30;;;10.20;47.00;;;;;;6270724;28;20063;-70
2022/02/08 21:09:29;;;;;;;9.60;4.10;;;10.20;47.00;;;;;;6291660;28;20036;-70
2022/02/08 21:12:41;;;;;;;13.27;4.28;;;10.20;47.10;;;;;;6274867;28;20025;-71
2022/02/08 21:15:42;;;;;;;8.43;4.47;;;10.20;47.10;;;;;;6271415;28;20775;-70
2022/02/08 21:18:44;;;;;;;16.10;4.82;;;10.10;47.10;;;;;;6288265;28;20021;-70
2022/02/08 21:21:47;;;;;;;14.88;4.70;;;10.10;47.20;;;;;;6289665;28;20056;-72
2022/02/08 21:24:52;;;;;;;11.70;4.32;;;10.10;47.50;;;;;;6271942;28;20070;-71
2022/02/08 21:27:59;;;;;;;13.55;5.32;;;10.10;47.90;;;;;;6290018;28;20466;-70
2022/02/08 21:53:44;;;;;;;17.13;5.90;;;9.50;50.00;;;;;;6273393;28;20020;-69
2022/02/08 21:56:45;;;;;;;15.32;6.22;;;9.40;50.00;;;;;;6284991;28;20464;-69
2022/02/08 21:59:46;;;;;;;16.42;4.55;;;9.40;50.10;;;;;;6287277;28;20085;-71
2022/02/08 22:02:47;;;;;;;13.07;5.10;;;9.40;50.20;;;;;;6270110;28;20036;-70
2022/02/08 22:05:48;;;;;;;12.60;4.97;;;9.30;50.30;;;;;;6273933;28;20475;-70
2022/02/08 22:08:55;;;;;;;10.60;5.15;;;9.30;50.40;;;;;;6283737;28;20024;-70
2022/02/08 22:21:56;;;;;;;17.55;5.57;;;9.10;50.90;;;;;;6271563;28;20031;-69
2022/02/08 22:29:03;;;;;;;18.83;5.18;;;9.00;51.10;;;;;;6271282;28;20020;-70
2022/02/08 22:31:39;;;;;;;17.15;5.72;;;9.00;51.20;;;;;;6267962;28;20377;-69
2022/02/08 22:34:51;;;;;;;9.98;5.30;;;9.00;51.30;;;;;;6273255;28;20025;-69
2022/02/08 22:38:11;;;;;;;16.50;5.68;;;9.00;51.30;;;;;;6286953;28;20465;-71
2022/02/08 22:41:19;;;;;;;13.90;5.93;;;8.90;51.40;;;;;;6269309;28;20083;-71
2022/02/08 22:47:28;;;;;;;20.42;5.60;;;8.90;51.60;;;;;;6285816;28;20032;-71
2022/02/08 22:50:29;;;;;;;13.45;5.63;;;8.80;51.70;;;;;;6270231;28;20028;-70
2022/02/08 22:53:30;;;;;;;12.63;4.72;;;8.80;51.90;;;;;;6288436;28;20052;-69
2022/02/08 22:56:32;;;;;;;16.33;5.05;;;8.80;51.90;;;;;;6272092;28;20176;-71
2022/02/08 22:59:33;;;;;;;18.27;5.43;;;8.80;52.00;;;;;;6272700;28;20024;-70
2022/02/08 23:02:35;;;;;;;25.75;6.20;;;8.80;51.90;;;;;;6271239;28;20032;-70
2022/02/08 23:05:36;;;;;;;11.05;4.57;;;8.80;51.90;;;;;;6287673;28;20037;-71
2022/02/08 23:08:37;;;;;;;13.35;5.68;;;8.80;51.80;;;;;;6268302;28;20338;-71
2022/02/08 23:12:08;;;;;;;15.75;6.13;;;8.80;51.70;;;;;;6287815;28;20028;-70
2022/02/08 23:38:06;;;;;;;13.45;5.82;;;8.50;52.60;;;;;;6287399;28;20020;-70
2022/02/08 23:41:07;;;;;;;14.93;5.25;;;8.40;52.80;;;;;;6286532;28;21032;-70
2022/02/08 23:44:08;;;;;;;12.93;5.80;;;8.40;53.00;;;;;;6272160;28;20105;-70
2022/02/08 23:47:16;;;;;;;16.98;5.53;;;8.40;53.10;;;;;;6288460;28;20012;-70
2022/02/08 23:50:26;;;;;;;17.23;6.22;;;8.30;53.20;;;;;;6266499;28;20035;-68
2022/02/08 23:53:39;;;;;;;11.00;5.72;;;8.30;53.40;;;;;;6268488;28;20408;-69
2022/02/08 23:56:51;;;;;;;15.40;6.53;;;8.30;53.40;;;;;;6286123;28;20028;-69
2022/02/08 23:59:52;;;;;;;12.20;5.85;;;8.20;53.50;;;;;;6287038;28;20033;-69
